Terminal Aerodrome Forecast
Issued by NWS

Home | Current Version | Previous Version | Text Only | Print | Product List | Glossary On
Versions: 1 2 3 4 5 6 7 8 9 10 11 12 13 14 15 16 17 18 19 20 21 22 23 24 25 26 27 28 29 30 31 32 33 34 35 36 37 38
834
FTUS45 KGJT 262004 AAA
TAFEGE
TAF AMD
KEGE 262004Z 2620/2718 24018G28KT P6SM VCSH SCT030 BKN060
     FM270200 VRB04KT P6SM -SHRA SCT020 BKN040
     FM270900 25008KT P6SM -RA BKN025 BKN040=

USA.gov is the U.S. government's official web portal to all federal, state and local government web resources and services.